createdAt,value
2018-01-17T00:01:44.162Z,98854.92
2018-01-17T00:04:10.349Z,98849.33
2018-01-17T00:06:36.535Z,98846.82
2018-01-17T00:09:02.866Z,98844.73
2018-01-17T00:11:29.105Z,98834.41
2018-01-17T00:13:55.338Z,98840.35
2018-01-17T00:16:21.914Z,98846.20
2018-01-17T00:18:48.129Z,98850.05
2018-01-17T00:21:14.326Z,98857.34
2018-01-17T00:23:40.577Z,98851.16
2018-01-17T00:26:06.791Z,98860.77
2018-01-17T00:28:33.014Z,98852.02
2018-01-17T00:30:59.273Z,98840.38
2018-01-17T00:33:25.494Z,98836.08
2018-01-17T00:35:51.726Z,98838.72
2018-01-17T00:38:17.998Z,98840.41
2018-01-17T00:40:44.267Z,98838.27
2018-01-17T00:43:10.756Z,98830.75
2018-01-17T00:45:36.983Z,98825.31
2018-01-17T00:48:03.512Z,98832.23
2018-01-17T00:50:29.952Z,98821.28
2018-01-17T00:52:56.209Z,98830.44
2018-01-17T00:55:22.828Z,98831.50
2018-01-17T00:57:49.210Z,98834.94
2018-01-17T01:00:15.461Z,98823.67
2018-01-17T01:02:42.027Z,98828.88
2018-01-17T01:05:08.274Z,98820.96
2018-01-17T01:07:34.463Z,98828.69
2018-01-17T01:10:00.766Z,98822.70
2018-01-17T01:12:27.011Z,98820.26
2018-01-17T01:14:53.466Z,98827.41
2018-01-17T01:17:20.006Z,98817.80
2018-01-17T01:19:46.254Z,98820.86
2018-01-17T01:22:12.461Z,98819.61
2018-01-17T01:24:38.714Z,98818.38
2018-01-17T01:27:04.922Z,98815.02
2018-01-17T01:29:31.198Z,98812.10
2018-01-17T01:31:57.441Z,98818.59
2018-01-17T01:34:23.661Z,98820.20
2018-01-17T01:36:50.180Z,98815.91
2018-01-17T01:39:16.367Z,98818.14
2018-01-17T01:41:42.569Z,98815.02
2018-01-17T01:44:09.093Z,98811.09
2018-01-17T01:46:35.458Z,98805.38
2018-01-17T01:49:01.984Z,98809.79
2018-01-17T01:51:28.183Z,98798.95
2018-01-17T01:53:54.465Z,98804.18
2018-01-17T01:56:20.686Z,98810.30
2018-01-17T01:58:46.894Z,98806.37
2018-01-17T02:01:13.190Z,98804.70
2018-01-17T02:03:39.410Z,98799.52
2018-01-17T02:06:05.657Z,98802.06
2018-01-17T02:08:31.935Z,98803.09
2018-01-17T02:10:58.166Z,98793.48
2018-01-17T02:13:24.598Z,98804.70
2018-01-17T02:15:50.889Z,98799.55
2018-01-17T02:18:17.152Z,98795.47
2018-01-17T02:20:43.382Z,98794.52
2018-01-17T02:23:09.977Z,98797.53
2018-01-17T02:25:36.173Z,98805.86
2018-01-17T02:28:02.377Z,98801.20
2018-01-17T02:30:28.993Z,98804.27
2018-01-17T02:32:55.203Z,98809.00
2018-01-17T02:35:21.765Z,98805.08
2018-01-17T02:37:48.003Z,98807.61
2018-01-17T02:40:26.402Z,98808.05
2018-01-17T02:42:52.635Z,98812.13
2018-01-17T02:45:18.897Z,98809.52
2018-01-17T02:47:45.469Z,98802.11
2018-01-17T02:50:11.660Z,98805.97
2018-01-17T02:52:37.890Z,98796.87
2018-01-17T02:55:04.429Z,98791.84
2018-01-17T02:57:30.686Z,98793.03
2018-01-17T02:59:56.909Z,98789.77
2018-01-17T03:02:23.446Z,98790.12
2018-01-17T03:04:49.715Z,98790.92
2018-01-17T03:07:15.975Z,98784.80
2018-01-17T03:09:42.269Z,98793.05
2018-01-17T03:12:08.501Z,98784.83
2018-01-17T03:14:34.695Z,98771.49
2018-01-17T03:17:00.984Z,98769.45
2018-01-17T03:19:27.202Z,98775.27
2018-01-17T03:21:53.432Z,98770.73
2018-01-17T03:24:19.941Z,98765.66
2018-01-17T03:26:46.241Z,98769.66
2018-01-17T03:29:12.811Z,98769.28
2018-01-17T03:31:39.089Z,98768.33
2018-01-17T03:34:05.344Z,98767.47
2018-01-17T03:36:31.542Z,98768.83
2018-01-17T03:38:57.818Z,98764.92
2018-01-17T03:41:24.046Z,98760.64
2018-01-17T03:43:50.277Z,98769.05
2018-01-17T03:46:16.549Z,98770.73
2018-01-17T03:48:42.814Z,98760.32
2018-01-17T03:51:09.055Z,98755.03
2018-01-17T03:53:35.310Z,98764.56
2018-01-17T03:56:01.707Z,98755.84
2018-01-17T03:58:27.922Z,98763.67
2018-01-17T04:00:54.173Z,98760.85
2018-01-17T04:03:20.762Z,98766.39
2018-01-17T04:05:46.978Z,98771.17
2018-01-17T04:08:13.185Z,98766.53
2018-01-17T04:10:39.470Z,98764.59
2018-01-17T04:13:05.959Z,98758.73
2018-01-17T04:15:32.576Z,98762.71
2018-01-17T04:17:59.120Z,98764.47
2018-01-17T04:20:25.352Z,98762.78
2018-01-17T04:22:51.918Z,98769.83
2018-01-17T04:25:18.117Z,98769.09
2018-01-17T04:27:44.315Z,98771.29
2018-01-17T04:30:10.565Z,98770.46
2018-01-17T04:32:36.773Z,98768.72
2018-01-17T04:35:03.064Z,98778.77
2018-01-17T04:37:30.073Z,98770.11
2018-01-17T04:39:56.318Z,98768.97
2018-01-17T04:42:22.840Z,98768.45
2018-01-17T04:44:49.415Z,98772.22
2018-01-17T04:47:15.699Z,98770.11
2018-01-17T04:49:41.909Z,98767.59
2018-01-17T04:52:08.235Z,98769.76
2018-01-17T04:54:34.454Z,98776.32
2018-01-17T04:57:00.755Z,98771.06
2018-01-17T04:59:26.998Z,98773.63
2018-01-17T05:01:53.210Z,98779.29
2018-01-17T05:04:19.502Z,98780.66
2018-01-17T05:06:45.745Z,98783.27
2018-01-17T05:09:11.975Z,98795.13
2018-01-17T05:11:38.488Z,98794.75
2018-01-17T05:14:04.686Z,98790.84
2018-01-17T05:16:30.905Z,98790.02
2018-01-17T05:18:57.194Z,98794.91
2018-01-17T05:21:23.446Z,98787.49
2018-01-17T05:23:49.629Z,98791.22
2018-01-17T05:26:15.984Z,98794.24
2018-01-17T05:28:42.191Z,98783.66
2018-01-17T05:31:08.360Z,98789.23
2018-01-17T05:33:35.265Z,98795.85
2018-01-17T05:36:01.467Z,98795.85
2018-01-17T05:38:28.066Z,98791.92
2018-01-17T05:40:54.585Z,98799.22
2018-01-17T05:43:20.812Z,98790.55
2018-01-17T05:45:47.011Z,98794.06
2018-01-17T05:48:13.349Z,98796.17
2018-01-17T05:50:39.559Z,98793.35
2018-01-17T05:53:05.810Z,98802.07
2018-01-17T05:55:32.065Z,98799.83
2018-01-17T05:57:58.280Z,98804.53
2018-01-17T06:00:24.557Z,98807.78
2018-01-17T06:02:50.814Z,98813.14
2018-01-17T06:05:17.012Z,98817.27
2018-01-17T06:07:43.488Z,98815.31
2018-01-17T06:10:09.643Z,98820.75
2018-01-17T06:12:35.866Z,98826.66
2018-01-17T06:15:02.107Z,98835.98
2018-01-17T06:17:28.318Z,98841.31
2018-01-17T06:19:54.508Z,98840.09
2018-01-17T06:22:21.029Z,98843.27
2018-01-17T06:24:47.286Z,98853.92
2018-01-17T06:27:13.511Z,98858.34
2018-01-17T06:29:39.766Z,98858.63
2018-01-17T06:32:06.263Z,98863.58
2018-01-17T06:34:32.730Z,98868.23
2018-01-17T06:36:59.545Z,98872.77
2018-01-17T06:39:26.080Z,98875.69
2018-01-17T06:41:52.524Z,98874.37
2018-01-17T06:44:18.770Z,98889.09
2018-01-17T06:46:44.986Z,98890.93
2018-01-17T06:49:11.599Z,98891.52
2018-01-17T06:51:37.852Z,98898.38
2018-01-17T06:54:04.059Z,98901.67
2018-01-17T06:56:30.285Z,98910.81
2018-01-17T06:58:56.482Z,98915.42
2018-01-17T07:01:23.067Z,98925.09
2018-01-17T07:03:49.259Z,98927.58
2018-01-17T07:06:15.483Z,98934.25
2018-01-17T07:08:42.039Z,98937.31
2018-01-17T07:11:08.238Z,98942.96
2018-01-17T07:13:34.525Z,98947.10
2018-01-17T07:16:00.765Z,98948.91
2018-01-17T07:18:26.978Z,98946.84
2018-01-17T07:20:53.225Z,98957.02
2018-01-17T07:23:19.462Z,98960.12
2018-01-17T07:25:45.673Z,98970.04
2018-01-17T07:28:11.884Z,98974.39
2018-01-17T07:30:38.094Z,98974.52
2018-01-17T07:33:04.382Z,98980.82
2018-01-17T07:35:30.866Z,98982.27
2018-01-17T07:37:57.094Z,98986.02
2018-01-17T07:40:23.737Z,98992.20
2018-01-17T07:42:50.272Z,99002.02
2018-01-17T07:45:16.494Z,99005.45
2018-01-17T07:47:43.050Z,99008.52
2018-01-17T07:50:09.277Z,99014.61
2018-01-17T07:52:35.455Z,99016.43
2018-01-17T07:55:02.034Z,99025.19
2018-01-17T07:57:28.243Z,99032.55
2018-01-17T07:59:54.441Z,99030.42
2018-01-17T08:02:21.009Z,99035.23
2018-01-17T08:04:47.232Z,99036.12
2018-01-17T08:07:13.425Z,99044.45
2018-01-17T08:09:39.714Z,99048.87
2018-01-17T08:12:05.976Z,99047.00
2018-01-17T08:14:32.205Z,99049.95
2018-01-17T08:16:58.477Z,99052.61
2018-01-17T08:19:24.666Z,99058.36
2018-01-17T08:21:51.142Z,99060.98
2018-01-17T08:24:17.364Z,99061.39
2018-01-17T08:26:43.577Z,99067.14
2018-01-17T08:29:10.110Z,99067.95
2018-01-17T08:31:36.322Z,99068.81
2018-01-17T08:34:02.749Z,99072.75
2018-01-17T08:36:29.028Z,99073.97
2018-01-17T08:38:55.566Z,99080.83
2018-01-17T08:41:21.757Z,99091.41
2018-01-17T08:43:48.002Z,99086.99
2018-01-17T08:46:14.226Z,99090.93
2018-01-17T08:48:40.585Z,99094.41
2018-01-17T08:51:06.845Z,99106.56
2018-01-17T08:53:33.038Z,99111.80
2018-01-17T08:55:59.704Z,99119.90
2018-01-17T08:58:25.884Z,99124.70
2018-01-17T09:00:52.117Z,99123.22
2018-01-17T09:03:18.392Z,99130.63
2018-01-17T09:05:44.592Z,99128.06
2018-01-17T09:08:10.792Z,99130.68
2018-01-17T09:10:37.012Z,99132.87
2018-01-17T09:13:03.243Z,99132.53
2018-01-17T09:15:29.486Z,99144.71
2018-01-17T09:17:55.672Z,99142.52
2018-01-17T09:20:21.935Z,99149.11
2018-01-17T09:22:48.190Z,99150.05
2018-01-17T09:25:14.721Z,99153.17
2018-01-17T09:27:40.965Z,99160.20
2018-01-17T09:30:07.303Z,99154.53
2018-01-17T09:32:33.554Z,99154.16
2018-01-17T09:34:59.770Z,99157.70
2018-01-17T09:37:26.009Z,99162.01
2018-01-17T09:39:52.217Z,99159.64
2018-01-17T09:42:18.444Z,99168.67
2018-01-17T09:44:44.723Z,99175.98
2018-01-17T09:47:10.946Z,99168.52
2018-01-17T09:49:37.289Z,99168.92
2018-01-17T09:52:03.530Z,99181.58
2018-01-17T09:54:29.762Z,99184.78
2018-01-17T09:56:56.032Z,99194.63
2018-01-17T09:59:22.220Z,99207.16
2018-01-17T10:01:48.415Z,99208.10
2018-01-17T10:04:14.685Z,99218.86
2018-01-17T10:06:40.862Z,99234.42
2018-01-17T10:09:07.101Z,99241.20
2018-01-17T10:11:33.733Z,99239.47
2018-01-17T10:13:59.944Z,99230.79
2018-01-17T10:16:26.159Z,99235.48
2018-01-17T10:18:52.404Z,99240.91
2018-01-17T10:21:18.613Z,99239.41
2018-01-17T10:23:45.174Z,99243.36
2018-01-17T10:26:11.409Z,99252.98
2018-01-17T10:28:37.705Z,99248.31
2018-01-17T10:31:03.879Z,99259.36
2018-01-17T10:33:30.101Z,99263.44
2018-01-17T10:35:56.665Z,99264.24
2018-01-17T10:38:22.868Z,99261.36
2018-01-17T10:40:49.110Z,99262.33
2018-01-17T10:43:15.659Z,99263.74
2018-01-17T10:45:42.185Z,99258.55
2018-01-17T10:48:08.442Z,99256.30
2018-01-17T10:50:34.772Z,99263.73
2018-01-17T10:53:00.973Z,99262.98
2018-01-17T10:55:27.274Z,99260.22
2018-01-17T10:57:53.501Z,99261.72
2018-01-17T11:00:19.765Z,99256.72
2018-01-17T11:02:46.297Z,99263.27
2018-01-17T11:05:12.471Z,99268.22
2018-01-17T11:07:38.663Z,99273.27
2018-01-17T11:10:05.248Z,99271.41
2018-01-17T11:12:31.449Z,99288.50
2018-01-17T11:14:57.645Z,99289.86
2018-01-17T11:17:23.925Z,99301.35
2018-01-17T11:19:50.147Z,99297.80
2018-01-17T11:22:16.628Z,99296.64
2018-01-17T11:24:42.918Z,99299.22
2018-01-17T11:27:09.187Z,99299.22
2018-01-17T11:29:35.473Z,99296.31
2018-01-17T11:32:01.708Z,99308.22
2018-01-17T11:34:28.388Z,99315.45
2018-01-17T11:36:54.652Z,99318.08
2018-01-17T11:39:21.557Z,99323.97
2018-01-17T11:41:47.809Z,99328.34
2018-01-17T11:44:14.329Z,99322.84
2018-01-17T11:46:40.644Z,99335.30
2018-01-17T11:49:06.900Z,99338.54
2018-01-17T11:51:33.217Z,99356.55
2018-01-17T11:53:59.509Z,99356.50
2018-01-17T11:56:25.734Z,99364.83
2018-01-17T11:58:51.992Z,99352.84
2018-01-17T12:01:18.246Z,99351.66
2018-01-17T12:03:44.456Z,99342.98
2018-01-17T12:06:11.241Z,99350.47
2018-01-17T12:08:37.528Z,99344.67
2018-01-17T12:11:04.006Z,99359.61
2018-01-17T12:13:30.246Z,99367.42
2018-01-17T12:15:56.480Z,99370.20
2018-01-17T12:18:23.047Z,99371.49
2018-01-17T12:20:49.245Z,99372.70
2018-01-17T12:23:15.468Z,99376.25
2018-01-17T12:25:41.717Z,99389.09
2018-01-17T12:28:07.961Z,99389.58
2018-01-17T12:30:34.177Z,99392.42
2018-01-17T12:33:00.441Z,99386.88
2018-01-17T12:35:26.658Z,99383.42
2018-01-17T12:37:52.925Z,99384.34
2018-01-17T12:40:19.148Z,99382.42
2018-01-17T12:42:46.679Z,99386.59
2018-01-17T12:45:12.991Z,99389.48
2018-01-17T12:47:39.241Z,99397.27
2018-01-17T12:50:05.465Z,99399.72
2018-01-17T12:52:32.002Z,99405.64
2018-01-17T12:54:58.194Z,99419.42
2018-01-17T12:57:24.668Z,99423.70
2018-01-17T12:59:50.944Z,99433.16
2018-01-17T13:02:17.132Z,99443.09
2018-01-17T13:04:43.354Z,99439.41
2018-01-17T13:07:09.969Z,99449.39
2018-01-17T13:09:36.500Z,99448.75
2018-01-17T13:12:02.913Z,99455.88
2018-01-17T13:14:29.293Z,99455.56
2018-01-17T13:16:55.500Z,99453.44
2018-01-17T13:21:53.565Z,99439.65
2018-01-17T13:24:20.125Z,99436.26
2018-01-17T13:26:46.351Z,99438.40
2018-01-17T13:29:12.889Z,99437.63
2018-01-17T13:31:39.173Z,99446.25
2018-01-17T13:34:05.473Z,99449.30
2018-01-17T13:36:31.700Z,99448.38
2018-01-17T13:38:57.901Z,99447.43
2018-01-17T13:41:24.120Z,99445.69
2018-01-17T13:43:50.304Z,99448.31
2018-01-17T13:46:16.545Z,99447.83
2018-01-17T13:48:42.800Z,99442.27
2018-01-17T13:51:09.450Z,99435.78
2018-01-17T13:53:35.724Z,99449.89
2018-01-17T13:56:02.320Z,99448.27
2018-01-17T13:58:28.500Z,99450.66
2018-01-17T14:00:54.746Z,99458.83
2018-01-17T14:03:20.989Z,99458.98
2018-01-17T14:05:47.214Z,99459.14
2018-01-17T14:08:13.465Z,99464.58
2018-01-17T14:10:39.669Z,99456.45
2018-01-17T14:13:06.323Z,99460.23
2018-01-17T14:15:32.538Z,99459.48
2018-01-17T14:17:58.796Z,99469.79
2018-01-17T14:20:25.057Z,99464.50
2018-01-17T14:22:51.282Z,99466.73
2018-01-17T14:25:17.490Z,99460.64
2018-01-17T14:27:43.757Z,99471.11
2018-01-17T14:30:09.958Z,99472.78
2018-01-17T14:32:36.178Z,99483.16
2018-01-17T14:35:02.733Z,99484.78
2018-01-17T14:37:28.944Z,99485.94
2018-01-17T14:39:55.143Z,99497.00
2018-01-17T14:42:21.718Z,99501.44
2018-01-17T14:44:47.957Z,99501.87
2018-01-17T14:47:14.177Z,99512.23
2018-01-17T14:49:40.408Z,99512.94
2018-01-17T14:52:06.631Z,99501.47
2018-01-17T14:54:32.830Z,99499.30
2018-01-17T14:56:59.461Z,99501.70
2018-01-17T14:59:25.696Z,99506.11
2018-01-17T15:01:51.942Z,99503.39
2018-01-17T15:04:18.209Z,99516.03
2018-01-17T15:06:44.689Z,99519.65
2018-01-17T15:09:11.210Z,99520.25
2018-01-17T15:11:37.476Z,99521.18
2018-01-17T15:14:03.778Z,99522.05
2018-01-17T15:16:30.186Z,99527.73
2018-01-17T15:18:56.550Z,99533.02
2018-01-17T15:21:23.166Z,99529.69
2018-01-17T15:23:49.460Z,99535.84
2018-01-17T15:26:15.681Z,99543.77
2018-01-17T15:28:41.940Z,99544.74
2018-01-17T15:31:08.191Z,99555.33
2018-01-17T15:33:34.412Z,99562.02
2018-01-17T15:36:00.651Z,99561.05
2018-01-17T15:38:26.935Z,99560.22
2018-01-17T15:40:53.171Z,99570.26
2018-01-17T15:43:19.451Z,99567.97
2018-01-17T15:45:45.717Z,99572.41
2018-01-17T15:48:11.933Z,99574.62
2018-01-17T15:50:38.219Z,99579.75
2018-01-17T15:53:04.850Z,99580.20
2018-01-17T15:55:31.042Z,99586.36
2018-01-17T15:57:57.301Z,99597.81
2018-01-17T16:00:23.516Z,99606.65
2018-01-17T16:02:49.709Z,99610.58
2018-01-17T16:05:16.009Z,99616.83
2018-01-17T16:07:42.199Z,99632.98
2018-01-17T16:10:08.409Z,99636.08
2018-01-17T16:12:34.678Z,99630.89
2018-01-17T16:15:00.901Z,99636.57
2018-01-17T16:17:27.136Z,99630.03
2018-01-17T16:19:53.461Z,99637.92
2018-01-17T16:22:19.666Z,99610.94
2018-01-17T16:24:46.003Z,99618.83
2018-01-17T16:27:12.254Z,99631.58
2018-01-17T16:29:38.813Z,99641.63
2018-01-17T16:32:05.034Z,99637.79
2018-01-17T16:34:31.271Z,99647.49
2018-01-17T16:36:57.555Z,99640.95
2018-01-17T16:39:23.765Z,99651.42
2018-01-17T16:41:49.951Z,99660.63
2018-01-17T16:44:16.534Z,99658.59
2018-01-17T16:46:42.740Z,99671.19
2018-01-17T16:49:08.931Z,99682.01
2018-01-17T16:51:35.561Z,99685.10
2018-01-17T16:54:01.745Z,99682.38
2018-01-17T16:56:27.942Z,99691.55
2018-01-17T16:58:54.187Z,99693.73
2018-01-17T17:01:20.416Z,99691.98
2018-01-17T17:03:46.722Z,99687.67
2018-01-17T17:06:12.998Z,99700.27
2018-01-17T17:08:39.241Z,99696.45
2018-01-17T17:11:05.517Z,99699.89
2018-01-17T17:13:31.782Z,99702.94
2018-01-17T17:15:58.266Z,99706.47
2018-01-17T17:18:24.891Z,99696.98
2018-01-17T17:20:51.425Z,99705.75
2018-01-17T17:23:17.674Z,99704.84
2018-01-17T17:25:44.248Z,99704.78
2018-01-17T17:28:10.424Z,99711.77
2018-01-17T17:30:36.950Z,99712.24
2018-01-17T17:33:03.196Z,99714.03
2018-01-17T17:35:29.411Z,99715.73
2018-01-17T17:37:55.645Z,99718.31
2018-01-17T17:40:21.852Z,99722.72
2018-01-17T17:42:48.054Z,99731.05
2018-01-17T17:45:14.318Z,99733.09
2018-01-17T17:47:40.857Z,99736.58
2018-01-17T17:50:07.057Z,99738.41
2018-01-17T17:52:33.689Z,99746.62
2018-01-17T17:54:59.917Z,99741.37
2018-01-17T17:57:26.142Z,99739.67
2018-01-17T17:59:52.393Z,99746.62
2018-01-17T18:02:18.656Z,99740.50
2018-01-17T18:04:44.928Z,99743.59
2018-01-17T18:07:11.218Z,99748.83
2018-01-17T18:09:37.510Z,99745.83
2018-01-17T18:12:03.740Z,99751.94
2018-01-17T18:14:30.030Z,99761.05
2018-01-17T18:16:56.214Z,99765.37
2018-01-17T18:19:22.445Z,99767.98
2018-01-17T18:21:48.681Z,99765.41
2018-01-17T18:24:14.949Z,99771.95
2018-01-17T18:26:41.154Z,99767.11
2018-01-17T18:29:07.660Z,99764.02
2018-01-17T18:31:34.205Z,99760.57
2018-01-17T18:34:00.504Z,99770.11
2018-01-17T18:36:27.057Z,99768.38
2018-01-17T18:38:53.635Z,99774.09
2018-01-17T18:41:19.926Z,99766.28
2018-01-17T18:43:46.162Z,99772.39
2018-01-17T18:46:12.453Z,99775.88
2018-01-17T18:48:38.703Z,99777.97
2018-01-17T18:51:04.929Z,99780.69
2018-01-17T18:53:31.514Z,99788.10
2018-01-17T18:55:57.744Z,99795.03
2018-01-17T18:58:23.990Z,99796.16
2018-01-17T19:00:50.253Z,99804.09
2018-01-17T19:03:16.481Z,99807.67
2018-01-17T19:05:42.809Z,99812.48
2018-01-17T19:08:09.068Z,99810.69
2018-01-17T19:10:35.331Z,99824.50
2018-01-17T19:13:02.032Z,99825.23
2018-01-17T19:15:28.273Z,99841.16
2018-01-17T19:17:54.511Z,99832.03
2018-01-17T19:20:20.740Z,99839.40
2018-01-17T19:22:47.433Z,99847.16
2018-01-17T19:25:13.941Z,99854.19
2018-01-17T19:27:40.163Z,99853.66
2018-01-17T19:30:06.417Z,99855.41
2018-01-17T19:32:32.642Z,99855.84
2018-01-17T19:34:58.830Z,99851.43
2018-01-17T19:37:25.086Z,99856.77
2018-01-17T19:39:52.238Z,99853.41
2018-01-17T19:42:18.566Z,99852.20
2018-01-17T19:44:44.822Z,99862.36
2018-01-17T19:47:11.020Z,99859.80
2018-01-17T19:49:37.262Z,99855.96
2018-01-17T19:52:03.504Z,99851.60
2018-01-17T19:54:29.748Z,99845.97
2018-01-17T19:56:55.936Z,99855.23
2018-01-17T19:59:22.193Z,99859.98
2018-01-17T20:01:48.382Z,99861.28
2018-01-17T20:04:14.605Z,99872.20
2018-01-17T20:06:40.989Z,99876.52
2018-01-17T20:09:07.192Z,99879.61
2018-01-17T20:11:33.483Z,99880.52
2018-01-17T20:13:59.737Z,99887.98
2018-01-17T20:16:25.945Z,99896.75
2018-01-17T20:18:52.138Z,99895.06
2018-01-17T20:21:18.758Z,99896.89
2018-01-17T20:23:45.014Z,99898.11
2018-01-17T20:26:11.281Z,99899.59
2018-01-17T20:28:37.570Z,99901.09
2018-01-17T20:31:03.835Z,99902.66
2018-01-17T20:33:30.498Z,99904.41
2018-01-17T20:35:56.849Z,99897.91
2018-01-17T20:38:23.155Z,99899.19
2018-01-17T20:40:49.361Z,99892.16
2018-01-17T20:43:15.610Z,99903.94
2018-01-17T20:45:42.858Z,99901.80
2018-01-17T20:48:09.095Z,99908.21
2018-01-17T20:50:35.450Z,99902.14
2018-01-17T20:53:01.770Z,99908.30
2018-01-17T20:55:28.069Z,99905.11
2018-01-17T20:57:54.381Z,99901.57
2018-01-17T21:00:20.738Z,99881.91
2018-01-17T21:02:46.969Z,99892.06
2018-01-17T21:05:13.342Z,99888.13
2018-01-17T21:07:39.557Z,99899.48
2018-01-17T21:10:05.773Z,99902.48
2018-01-17T21:12:32.078Z,99910.34
2018-01-17T21:14:58.265Z,99910.44
2018-01-17T21:17:24.768Z,99906.94
2018-01-17T21:19:51.342Z,99907.86
2018-01-17T21:22:17.603Z,99907.47
2018-01-17T21:24:43.934Z,99915.76
2018-01-17T21:27:10.288Z,99909.13
2018-01-17T21:29:36.477Z,99918.77
2018-01-17T21:32:02.710Z,99920.91
2018-01-17T21:34:29.354Z,99928.37
2018-01-17T21:36:55.562Z,99936.70
2018-01-17T21:39:21.757Z,99943.30
2018-01-17T21:41:48.041Z,99945.17
2018-01-17T21:44:20.318Z,99933.34
2018-01-17T21:46:46.500Z,99937.36
2018-01-17T21:49:12.808Z,99940.33
2018-01-17T21:51:39.162Z,99938.14
2018-01-17T21:54:05.412Z,99938.50
2018-01-17T21:56:31.654Z,99945.03
2018-01-17T21:58:57.966Z,99945.88
2018-01-17T22:01:24.557Z,99945.03
2018-01-17T22:03:50.786Z,99937.14
2018-01-17T22:06:17.282Z,99943.25
2018-01-17T22:08:43.854Z,99939.41
2018-01-17T22:11:10.156Z,99944.60
2018-01-17T22:13:36.612Z,99947.26
2018-01-17T22:16:02.816Z,99950.80
2018-01-17T22:18:29.413Z,99942.03
2018-01-17T22:20:55.661Z,99939.41
2018-01-17T22:23:21.905Z,99948.48
2018-01-17T22:25:48.442Z,99940.72
2018-01-17T22:28:14.668Z,99943.16
2018-01-17T22:30:40.918Z,99949.70
2018-01-17T22:33:07.570Z,99954.33
2018-01-17T22:35:33.745Z,99953.84
2018-01-17T22:37:59.949Z,99943.86
2018-01-17T22:40:26.225Z,99952.49
2018-01-17T22:42:52.456Z,99954.72
2018-01-17T22:45:19.007Z,99959.47
2018-01-17T22:47:45.249Z,99971.55
2018-01-17T22:50:11.788Z,99977.19
2018-01-17T22:52:37.995Z,99978.10
2018-01-17T22:55:04.216Z,99977.67
2018-01-17T22:57:30.725Z,99989.97
2018-01-17T22:59:57.310Z,100012.23
2018-01-17T23:02:23.610Z,100000.14
2018-01-17T23:04:49.893Z,100001.94
2018-01-17T23:07:16.187Z,100019.73
2018-01-17T23:09:42.412Z,100007.05
2018-01-17T23:12:08.962Z,100007.91
2018-01-17T23:14:35.489Z,100011.02
2018-01-17T23:17:01.709Z,100014.03
2018-01-17T23:19:27.962Z,100010.57
2018-01-17T23:21:54.498Z,100007.42
2018-01-17T23:24:20.927Z,100015.63
2018-01-17T23:26:47.163Z,100003.37
2018-01-17T23:29:14.089Z,100001.58
2018-01-17T23:31:40.305Z,99992.41
2018-01-17T23:34:06.561Z,99999.41
2018-01-17T23:36:32.919Z,99988.05
2018-01-17T23:38:59.164Z,99994.60
2018-01-17T23:41:25.409Z,99993.30
2018-01-17T23:43:52.197Z,99991.15
2018-01-17T23:46:18.426Z,99983.77
2018-01-17T23:48:44.661Z,99979.84
2018-01-17T23:51:10.905Z,99981.16
2018-01-17T23:53:37.102Z,99971.25
2018-01-17T23:56:03.398Z,99970.81
2018-01-17T23:58:29.945Z,99970.77
